sensor_id;sensor_type;location;lat;lon;timestamp;pressure;altitude;pressure_sealevel;temperature;humidity
60437;BME280;46289;51.992;4.498;2023-05-29T00:01:56;102665.22;;;11.60;76.98
60437;BME280;46289;51.992;4.498;2023-05-29T00:04:14;102666.13;;;11.59;77.09
60437;BME280;46289;51.992;4.498;2023-05-29T00:06:23;102654.81;;;11.52;76.87
60437;BME280;46289;51.992;4.498;2023-05-29T00:08:29;102658.41;;;11.47;77.43
60437;BME280;46289;51.992;4.498;2023-05-29T00:10:34;102666.25;;;11.50;77.44
60437;BME280;46289;51.992;4.498;2023-05-29T00:12:43;102655.75;;;11.48;77.30
60437;BME280;46289;51.992;4.498;2023-05-29T00:14:59;102659.31;;;11.46;77.26
60437;BME280;46289;51.992;4.498;2023-05-29T00:17:09;102659.31;;;11.44;77.81
60437;BME280;46289;51.992;4.498;2023-05-29T00:19:18;102653.19;;;11.43;77.47
60437;BME280;46289;51.992;4.498;2023-05-29T00:21:32;102654.97;;;11.41;77.80
60437;BME280;46289;51.992;4.498;2023-05-29T00:23:43;102652.34;;;11.41;77.93
60437;BME280;46289;51.992;4.498;2023-05-29T00:25:57;102654.09;;;11.41;77.78
60437;BME280;46289;51.992;4.498;2023-05-29T00:28:04;102655.03;;;11.37;77.66
60437;BME280;46289;51.992;4.498;2023-05-29T00:30:15;102655.94;;;11.36;78.10
60437;BME280;46289;51.992;4.498;2023-05-29T00:32:27;102656.91;;;11.30;78.26
60437;BME280;46289;51.992;4.498;2023-05-29T00:34:35;102653.41;;;11.28;78.31
60437;BME280;46289;51.992;4.498;2023-05-29T00:36:43;102658.69;;;11.27;78.25
60437;BME280;46289;51.992;4.498;2023-05-29T00:38:55;102663.06;;;11.28;78.29
60437;BME280;46289;51.992;4.498;2023-05-29T00:41:03;102674.50;;;11.25;78.32
60437;BME280;46289;51.992;4.498;2023-05-29T00:43:09;102669.31;;;11.20;78.46
60437;BME280;46289;51.992;4.498;2023-05-29T00:45:38;102678.94;;;11.21;78.99
60437;BME280;46289;51.992;4.498;2023-05-29T00:47:48;102680.84;;;11.12;78.88
60437;BME280;46289;51.992;4.498;2023-05-29T00:49:57;102681.66;;;11.17;78.77
60437;BME280;46289;51.992;4.498;2023-05-29T00:52:05;102686.97;;;11.11;78.85
60437;BME280;46289;51.992;4.498;2023-05-29T00:54:14;102689.59;;;11.12;79.05
60437;BME280;46289;51.992;4.498;2023-05-29T00:56:23;102692.22;;;11.12;79.20
60437;BME280;46289;51.992;4.498;2023-05-29T00:58:34;102692.28;;;11.08;79.28
60437;BME280;46289;51.992;4.498;2023-05-29T01:00:46;102694.03;;;11.09;79.11
60437;BME280;46289;51.992;4.498;2023-05-29T01:03:04;102694.97;;;11.03;79.09
60437;BME280;46289;51.992;4.498;2023-05-29T01:05:15;102697.56;;;11.05;79.45
60437;BME280;46289;51.992;4.498;2023-05-29T01:07:23;102701.13;;;11.02;79.34
60437;BME280;46289;51.992;4.498;2023-05-29T01:09:29;102696.75;;;10.99;79.49
60437;BME280;46289;51.992;4.498;2023-05-29T01:11:45;102697.66;;;10.98;79.55
60437;BME280;46289;51.992;4.498;2023-05-29T01:13:54;102699.41;;;10.99;79.84
60437;BME280;46289;51.992;4.498;2023-05-29T01:16:14;102695.13;;;10.91;79.78
60437;BME280;46289;51.992;4.498;2023-05-29T01:18:36;102698.63;;;10.93;79.85
60437;BME280;46289;51.992;4.498;2023-05-29T01:20:52;102700.34;;;10.94;79.77
60437;BME280;46289;51.992;4.498;2023-05-29T01:23:22;102696.81;;;10.95;79.25
60437;BME280;46289;51.992;4.498;2023-05-29T01:25:41;102706.47;;;10.94;79.56
60437;BME280;46289;51.992;4.498;2023-05-29T01:27:55;102708.25;;;10.92;79.11
60437;BME280;46289;51.992;4.498;2023-05-29T01:30:06;102703.84;;;10.94;79.20
60437;BME280;46289;51.992;4.498;2023-05-29T01:32:12;102707.41;;;10.90;78.86
60437;BME280;46289;51.992;4.498;2023-05-29T01:34:25;102713.53;;;10.89;79.25
60437;BME280;46289;51.992;4.498;2023-05-29T01:36:37;102703.88;;;10.91;78.88
60437;BME280;46289;51.992;4.498;2023-05-29T01:38:45;102697.72;;;10.94;78.82
60437;BME280;46289;51.992;4.498;2023-05-29T01:40:52;102708.25;;;10.92;78.51
60437;BME280;46289;51.992;4.498;2023-05-29T01:43:03;102707.38;;;10.93;78.40
60437;BME280;46289;51.992;4.498;2023-05-29T01:45:12;102696.00;;;10.90;78.39
60437;BME280;46289;51.992;4.498;2023-05-29T01:47:27;102706.50;;;10.90;78.38
60437;BME280;46289;51.992;4.498;2023-05-29T01:49:34;102710.94;;;10.88;78.03
60437;BME280;46289;51.992;4.498;2023-05-29T01:51:43;102708.34;;;10.85;78.09
60437;BME280;46289;51.992;4.498;2023-05-29T01:53:51;102717.16;;;10.82;78.22
60437;BME280;46289;51.992;4.498;2023-05-29T01:55:56;102717.19;;;10.77;78.05
60437;BME280;46289;51.992;4.498;2023-05-29T01:58:05;102718.97;;;10.77;78.11
60437;BME280;46289;51.992;4.498;2023-05-29T02:00:17;102721.63;;;10.72;78.07
60437;BME280;46289;51.992;4.498;2023-05-29T02:02:24;102724.22;;;10.77;78.57
60437;BME280;46289;51.992;4.498;2023-05-29T02:04:36;102728.59;;;10.80;78.10
60437;BME280;46289;51.992;4.498;2023-05-29T02:06:41;102731.22;;;10.78;77.90
60437;BME280;46289;51.992;4.498;2023-05-29T02:09:03;102732.94;;;10.79;78.30
60437;BME280;46289;51.992;4.498;2023-05-29T02:11:09;102733.75;;;10.84;77.62
60437;BME280;46289;51.992;4.498;2023-05-29T02:13:21;102724.16;;;10.83;77.98
60437;BME280;46289;51.992;4.498;2023-05-29T02:15:32;102725.00;;;10.84;77.80
60437;BME280;46289;51.992;4.498;2023-05-29T02:17:37;102732.03;;;10.82;77.56
60437;BME280;46289;51.992;4.498;2023-05-29T02:19:46;102719.78;;;10.79;77.73
60437;BME280;46289;51.992;4.498;2023-05-29T02:21:54;102726.81;;;10.79;78.01
60437;BME280;46289;51.992;4.498;2023-05-29T02:24:03;102717.19;;;10.76;77.72
60437;BME280;46289;51.992;4.498;2023-05-29T02:26:09;102727.69;;;10.79;77.60
60437;BME280;46289;51.992;4.498;2023-05-29T02:28:14;102722.44;;;10.79;78.00
60437;BME280;46289;51.992;4.498;2023-05-29T02:30:24;102721.59;;;10.77;78.04
60437;BME280;46289;51.992;4.498;2023-05-29T02:32:42;102722.50;;;10.73;78.40
60437;BME280;46289;51.992;4.498;2023-05-29T02:34:50;102721.59;;;10.75;78.37
60437;BME280;46289;51.992;4.498;2023-05-29T02:37:09;102721.47;;;10.85;78.10
60437;BME280;46289;51.992;4.498;2023-05-29T02:39:16;102725.88;;;10.84;77.83
60437;BME280;46289;51.992;4.498;2023-05-29T02:41:21;102725.00;;;10.85;78.17
60437;BME280;46289;51.992;4.498;2023-05-29T02:43:31;102732.91;;;10.85;77.89
60437;BME280;46289;51.992;4.498;2023-05-29T02:45:40;102717.03;;;10.91;77.76
60437;BME280;46289;51.992;4.498;2023-05-29T02:47:51;102715.31;;;10.90;77.64
60437;BME280;46289;51.992;4.498;2023-05-29T02:49:57;102727.56;;;10.91;77.66
60437;BME280;46289;51.992;4.498;2023-05-29T02:52:02;102719.66;;;10.91;77.79
60437;BME280;46289;51.992;4.498;2023-05-29T02:54:19;102723.16;;;10.92;77.40
60437;BME280;46289;51.992;4.498;2023-05-29T02:56:31;102722.25;;;10.96;77.28
60437;BME280;46289;51.992;4.498;2023-05-29T02:58:37;102725.75;;;10.96;77.23
60437;BME280;46289;51.992;4.498;2023-05-29T03:00:52;102727.47;;;10.97;77.17
60437;BME280;46289;51.992;4.498;2023-05-29T03:02:58;102726.56;;;11.00;76.97
60437;BME280;46289;51.992;4.498;2023-05-29T03:05:07;102727.47;;;11.01;77.14
60437;BME280;46289;51.992;4.498;2023-05-29T03:07:12;102730.09;;;10.99;76.64
60437;BME280;46289;51.992;4.498;2023-05-29T03:09:19;102730.91;;;11.03;76.96
60437;BME280;46289;51.992;4.498;2023-05-29T03:11:29;102729.19;;;11.02;76.74
60437;BME280;46289;51.992;4.498;2023-05-29T03:13:37;102735.38;;;10.97;76.99
60437;BME280;46289;51.992;4.498;2023-05-29T03:15:51;102735.28;;;11.05;77.05
60437;BME280;46289;51.992;4.498;2023-05-29T03:18:01;102738.81;;;11.04;76.79
60437;BME280;46289;51.992;4.498;2023-05-29T03:20:12;102737.88;;;11.10;76.34
60437;BME280;46289;51.992;4.498;2023-05-29T03:22:18;102733.41;;;11.13;76.37
60437;BME280;46289;51.992;4.498;2023-05-29T03:24:26;102728.19;;;11.12;76.13
60437;BME280;46289;51.992;4.498;2023-05-29T03:26:34;102724.72;;;11.08;76.27
60437;BME280;46289;51.992;4.498;2023-05-29T03:28:46;102717.66;;;11.12;76.26
60437;BME280;46289;51.992;4.498;2023-05-29T03:30:57;102725.56;;;11.10;75.99
60437;BME280;46289;51.992;4.498;2023-05-29T03:33:06;102718.53;;;11.11;76.18
60437;BME280;46289;51.992;4.498;2023-05-29T03:35:17;102722.97;;;11.09;76.05
60437;BME280;46289;51.992;4.498;2023-05-29T03:37:24;102714.13;;;11.13;75.86
60437;BME280;46289;51.992;4.498;2023-05-29T03:39:31;102724.72;;;11.08;76.37
60437;BME280;46289;51.992;4.498;2023-05-29T03:41:38;102725.53;;;11.15;76.88
60437;BME280;46289;51.992;4.498;2023-05-29T03:43:46;102721.06;;;11.20;77.15
60437;BME280;46289;51.992;4.498;2023-05-29T03:45:53;102729.00;;;11.17;77.29
60437;BME280;46289;51.992;4.498;2023-05-29T03:48:15;102728.91;;;11.23;77.10
60437;BME280;46289;51.992;4.498;2023-05-29T03:50:33;102734.19;;;11.21;77.17
60437;BME280;46289;51.992;4.498;2023-05-29T03:52:41;102735.97;;;11.21;77.74
60437;BME280;46289;51.992;4.498;2023-05-29T03:54:48;102742.97;;;11.22;77.47
60437;BME280;46289;51.992;4.498;2023-05-29T03:56:54;102740.41;;;11.19;77.21
60437;BME280;46289;51.992;4.498;2023-05-29T03:59:07;102742.16;;;11.17;76.91
60437;BME280;46289;51.992;4.498;2023-05-29T04:01:13;102739.69;;;11.05;76.63
60437;BME280;46289;51.992;4.498;2023-05-29T04:03:23;102747.59;;;11.02;77.01
60437;BME280;46289;51.992;4.498;2023-05-29T04:05:29;102742.34;;;11.02;76.62
60437;BME280;46289;51.992;4.498;2023-05-29T04:07:38;102747.59;;;11.02;76.32
60437;BME280;46289;51.992;4.498;2023-05-29T04:09:44;102743.25;;;10.99;76.17
60437;BME280;46289;51.992;4.498;2023-05-29T04:11:50;102742.41;;;10.97;75.88
60437;BME280;46289;51.992;4.498;2023-05-29T04:13:57;102749.47;;;10.93;76.05
60437;BME280;46289;51.992;4.498;2023-05-29T04:16:05;102752.06;;;10.95;76.00
60437;BME280;46289;51.992;4.498;2023-05-29T04:18:12;102752.06;;;10.96;75.95
60437;BME280;46289;51.992;4.498;2023-05-29T04:20:21;102752.97;;;10.92;75.39
60437;BME280;46289;51.992;4.498;2023-05-29T04:22:34;102752.09;;;10.93;75.52
60437;BME280;46289;51.992;4.498;2023-05-29T04:24:41;102751.19;;;10.94;75.79
60437;BME280;46289;51.992;4.498;2023-05-29T04:26:47;102759.13;;;10.91;75.07
60437;BME280;46289;51.992;4.498;2023-05-29T04:28:58;102761.72;;;10.94;75.23
60437;BME280;46289;51.992;4.498;2023-05-29T04:31:11;102764.38;;;10.93;75.05
60437;BME280;46289;51.992;4.498;2023-05-29T04:33:19;102767.84;;;10.96;74.69
60437;BME280;46289;51.992;4.498;2023-05-29T04:35:31;102757.31;;;10.96;74.27
60437;BME280;46289;51.992;4.498;2023-05-29T04:37:42;102774.91;;;10.93;74.25
60437;BME280;46289;51.992;4.498;2023-05-29T04:39:48;102761.72;;;10.94;73.90
60437;BME280;46289;51.992;4.498;2023-05-29T04:41:58;102766.09;;;10.94;74.31
60437;BME280;46289;51.992;4.498;2023-05-29T04:44:04;102765.19;;;10.98;73.82
60437;BME280;46289;51.992;4.498;2023-05-29T04:46:13;102773.88;;;11.03;73.47
60437;BME280;46289;51.992;4.498;2023-05-29T04:48:18;102771.25;;;11.05;73.46
60437;BME280;46289;51.992;4.498;2023-05-29T04:50:23;102775.59;;;11.06;73.10
60437;BME280;46289;51.992;4.498;2023-05-29T04:52:36;102773.06;;;11.01;73.12
60437;BME280;46289;51.992;4.498;2023-05-29T04:54:44;102787.91;;;11.05;72.99
60437;BME280;46289;51.992;4.498;2023-05-29T04:56:52;102786.16;;;11.04;73.04
60437;BME280;46289;51.992;4.498;2023-05-29T04:59:00;102780.78;;;11.15;72.72
60437;BME280;46289;51.992;4.498;2023-05-29T05:01:06;102787.72;;;11.20;73.04
60437;BME280;46289;51.992;4.498;2023-05-29T05:03:19;102786.72;;;11.29;72.22
60437;BME280;46289;51.992;4.498;2023-05-29T05:05:29;102785.84;;;11.30;72.02
60437;BME280;46289;51.992;4.498;2023-05-29T05:07:38;102789.22;;;11.41;72.02
60437;BME280;46289;51.992;4.498;2023-05-29T05:09:45;102790.03;;;11.45;70.93
60437;BME280;46289;51.992;4.498;2023-05-29T05:11:55;102791.63;;;11.58;71.10
60437;BME280;46289;51.992;4.498;2023-05-29T05:14:00;102787.22;;;11.60;70.28
60437;BME280;46289;51.992;4.498;2023-05-29T05:16:05;102789.84;;;11.62;70.17
60437;BME280;46289;51.992;4.498;2023-05-29T05:18:13;102786.28;;;11.64;70.57
60437;BME280;46289;51.992;4.498;2023-05-29T05:20:18;102794.34;;;11.54;70.73
60437;BME280;46289;51.992;4.498;2023-05-29T05:22:28;102786.34;;;11.58;70.69
60437;BME280;46289;51.992;4.498;2023-05-29T05:24:37;102801.19;;;11.67;70.03
60437;BME280;46289;51.992;4.498;2023-05-29T05:26:45;102792.44;;;11.65;69.61
60437;BME280;46289;51.992;4.498;2023-05-29T05:28:52;102802.69;;;11.83;69.08
60437;BME280;46289;51.992;4.498;2023-05-29T05:30:58;102787.50;;;12.04;68.59
60437;BME280;46289;51.992;4.498;2023-05-29T05:33:13;102790.09;;;12.08;68.59
60437;BME280;46289;51.992;4.498;2023-05-29T05:35:18;102796.06;;;12.18;68.40
60437;BME280;46289;51.992;4.498;2023-05-29T05:37:24;102795.69;;;12.43;67.66
60437;BME280;46289;51.992;4.498;2023-05-29T05:39:29;102790.34;;;12.46;67.13
60437;BME280;46289;51.992;4.498;2023-05-29T05:41:58;102792.88;;;12.52;67.20
60437;BME280;46289;51.992;4.498;2023-05-29T05:44:03;102787.59;;;12.52;66.94
60437;BME280;46289;51.992;4.498;2023-05-29T05:46:11;102787.84;;;12.88;66.29
60437;BME280;46289;51.992;4.498;2023-05-29T05:48:17;102793.84;;;12.94;65.72
60437;BME280;46289;51.992;4.498;2023-05-29T05:50:24;102790.78;;;13.16;64.91
60437;BME280;46289;51.992;4.498;2023-05-29T05:52:31;102794.34;;;13.13;64.58
60437;BME280;46289;51.992;4.498;2023-05-29T05:54:40;102792.91;;;12.97;65.29
60437;BME280;46289;51.992;4.498;2023-05-29T05:56:51;102790.34;;;12.92;65.43
60437;BME280;46289;51.992;4.498;2023-05-29T05:59:01;102802.53;;;13.01;65.40
60437;BME280;46289;51.992;4.498;2023-05-29T06:01:12;102802.59;;;12.96;65.80
60437;BME280;46289;51.992;4.498;2023-05-29T06:03:18;102799.81;;;13.04;65.66
60437;BME280;46289;51.992;4.498;2023-05-29T06:05:24;102806.97;;;12.99;65.58
60437;BME280;46289;51.992;4.498;2023-05-29T06:07:33;102804.31;;;12.99;65.88
60437;BME280;46289;51.992;4.498;2023-05-29T06:09:42;102808.53;;;13.09;65.73
60437;BME280;46289;51.992;4.498;2023-05-29T06:11:47;102815.50;;;13.12;65.49
60437;BME280;46289;51.992;4.498;2023-05-29T06:13:55;102810.31;;;13.07;64.80
60437;BME280;46289;51.992;4.498;2023-05-29T06:16:04;102807.59;;;13.12;65.36
60437;BME280;46289;51.992;4.498;2023-05-29T06:18:10;102802.91;;;13.28;65.30
60437;BME280;46289;51.992;4.498;2023-05-29T06:20:15;102809.19;;;13.21;64.99
60437;BME280;46289;51.992;4.498;2023-05-29T06:22:23;102807.69;;;13.07;64.98
60437;BME280;46289;51.992;4.498;2023-05-29T06:24:31;102803.97;;;13.17;64.87
60437;BME280;46289;51.992;4.498;2023-05-29T06:26:38;102803.81;;;13.24;65.21
60437;BME280;46289;51.992;4.498;2023-05-29T06:28:43;102803.81;;;13.25;64.94
60437;BME280;46289;51.992;4.498;2023-05-29T06:30:56;102806.41;;;13.30;65.03
60437;BME280;46289;51.992;4.498;2023-05-29T06:33:01;102820.50;;;13.26;64.90
60437;BME280;46289;51.992;4.498;2023-05-29T06:35:21;102809.25;;;13.16;64.00
60437;BME280;46289;51.992;4.498;2023-05-29T06:37:30;102806.56;;;13.19;64.75
60437;BME280;46289;51.992;4.498;2023-05-29T06:39:38;102810.16;;;13.16;64.21
60437;BME280;46289;51.992;4.498;2023-05-29T06:41:53;102812.66;;;13.23;64.26
60437;BME280;46289;51.992;4.498;2023-05-29T06:43:58;102813.53;;;13.22;64.30
60437;BME280;46289;51.992;4.498;2023-05-29T06:46:06;102817.75;;;13.33;64.29
60437;BME280;46289;51.992;4.498;2023-05-29T06:48:18;102810.06;;;13.63;63.18
60437;BME280;46289;51.992;4.498;2023-05-29T06:50:31;102808.69;;;13.47;63.38
60437;BME280;46289;51.992;4.498;2023-05-29T06:52:38;102806.81;;;13.50;63.12
60437;BME280;46289;51.992;4.498;2023-05-29T06:54:43;102819.25;;;13.45;63.01
60437;BME280;46289;51.992;4.498;2023-05-29T06:56:48;102819.81;;;13.61;63.07
60437;BME280;46289;51.992;4.498;2023-05-29T06:59:11;102817.22;;;13.59;62.40
60437;BME280;46289;51.992;4.498;2023-05-29T07:01:19;102824.50;;;13.48;63.01
60437;BME280;46289;51.992;4.498;2023-05-29T07:03:28;102820.75;;;13.97;62.62
60437;BME280;46289;51.992;4.498;2023-05-29T07:05:39;102817.84;;;14.10;61.46
60437;BME280;46289;51.992;4.498;2023-05-29T07:07:47;102808.19;;;14.09;61.15
60437;BME280;46289;51.992;4.498;2023-05-29T07:09:52;102827.50;;;14.11;60.82
60437;BME280;46289;51.992;4.498;2023-05-29T07:12:02;102820.66;;;14.03;60.92
60437;BME280;46289;51.992;4.498;2023-05-29T07:14:07;102831.72;;;14.57;60.16
60437;BME280;46289;51.992;4.498;2023-05-29T07:16:12;102820.88;;;14.66;59.20
60437;BME280;46289;51.992;4.498;2023-05-29T07:18:27;102817.06;;;14.78;59.45
60437;BME280;46289;51.992;4.498;2023-05-29T07:20:37;102819.41;;;14.88;59.67
60437;BME280;46289;51.992;4.498;2023-05-29T07:22:49;102825.81;;;15.75;58.29
60437;BME280;46289;51.992;4.498;2023-05-29T07:25:02;102821.56;;;15.97;56.03
60437;BME280;46289;51.992;4.498;2023-05-29T07:27:09;102819.97;;;15.92;54.35
60437;BME280;46289;51.992;4.498;2023-05-29T07:29:30;102822.66;;;15.90;53.76
60437;BME280;46289;51.992;4.498;2023-05-29T07:31:47;102821.56;;;15.68;53.79
60437;BME280;46289;51.992;4.498;2023-05-29T07:34:00;102830.66;;;15.59;53.49
60437;BME280;46289;51.992;4.498;2023-05-29T07:36:06;102833.22;;;15.62;53.65
60437;BME280;46289;51.992;4.498;2023-05-29T07:38:13;102834.84;;;15.66;53.64
60437;BME280;46289;51.992;4.498;2023-05-29T07:40:20;102833.03;;;15.70;53.47
60437;BME280;46289;51.992;4.498;2023-05-29T07:42:27;102831.41;;;15.64;53.96
60437;BME280;46289;51.992;4.498;2023-05-29T07:44:39;102831.97;;;15.75;53.98
60437;BME280;46289;51.992;4.498;2023-05-29T07:46:49;102827.56;;;16.04;53.68
60437;BME280;46289;51.992;4.498;2023-05-29T07:48:54;102827.19;;;15.87;53.59
60437;BME280;46289;51.992;4.498;2023-05-29T07:51:06;102836.50;;;16.00;53.54
60437;BME280;46289;51.992;4.498;2023-05-29T07:53:13;102827.44;;;16.07;52.90
60437;BME280;46289;51.992;4.498;2023-05-29T07:55:20;102838.53;;;15.92;53.38
60437;BME280;46289;51.992;4.498;2023-05-29T07:57:27;102843.16;;;16.13;53.04
60437;BME280;46289;51.992;4.498;2023-05-29T07:59:37;102830.81;;;15.84;52.83
60437;BME280;46289;51.992;4.498;2023-05-29T08:01:43;102845.41;;;15.68;53.53
60437;BME280;46289;51.992;4.498;2023-05-29T08:03:54;102842.88;;;15.65;53.64
60437;BME280;46289;51.992;4.498;2023-05-29T08:06:05;102846.94;;;15.76;52.90
60437;BME280;46289;51.992;4.498;2023-05-29T08:08:12;102849.28;;;15.56;53.53
60437;BME280;46289;51.992;4.498;2023-05-29T08:10:17;102847.88;;;15.44;53.41
60437;BME280;46289;51.992;4.498;2023-05-29T08:12:28;102854.75;;;15.51;53.11
60437;BME280;46289;51.992;4.498;2023-05-29T08:14:40;102856.47;;;16.12;52.08
60437;BME280;46289;51.992;4.498;2023-05-29T08:16:48;102842.38;;;16.38;51.51
60437;BME280;46289;51.992;4.498;2023-05-29T08:19:04;102842.63;;;16.57;50.68
60437;BME280;46289;51.992;4.498;2023-05-29T08:21:13;102846.63;;;16.43;50.93
60437;BME280;46289;51.992;4.498;2023-05-29T08:23:38;102841.84;;;16.53;50.88
60437;BME280;46289;51.992;4.498;2023-05-29T08:25:54;102853.19;;;17.10;50.74
60437;BME280;46289;51.992;4.498;2023-05-29T08:28:24;102839.00;;;16.86;50.23
60437;BME280;46289;51.992;4.498;2023-05-29T08:30:59;102864.31;;;16.70;50.72
60437;BME280;46289;51.992;4.498;2023-05-29T08:33:09;102855.06;;;16.55;50.89
60437;BME280;46289;51.992;4.498;2023-05-29T08:35:22;102850.59;;;16.83;49.42
60437;BME280;46289;51.992;4.498;2023-05-29T08:37:33;102844.94;;;16.93;49.21
60437;BME280;46289;51.992;4.498;2023-05-29T08:39:42;102853.28;;;17.32;48.56
60437;BME280;46289;51.992;4.498;2023-05-29T08:41:59;102849.66;;;17.58;47.52
60437;BME280;46289;51.992;4.498;2023-05-29T08:44:09;102838.34;;;16.79;48.19
60437;BME280;46289;51.992;4.498;2023-05-29T08:46:26;102847.97;;;17.32;47.64
60437;BME280;46289;51.992;4.498;2023-05-29T08:48:35;102859.53;;;17.54;46.84
60437;BME280;46289;51.992;4.498;2023-05-29T08:50:54;102858.59;;;17.81;46.45
60437;BME280;46289;51.992;4.498;2023-05-29T08:53:11;102864.00;;;17.77;45.74
60437;BME280;46289;51.992;4.498;2023-05-29T08:55:27;102852.19;;;18.30;46.22
60437;BME280;46289;51.992;4.498;2023-05-29T08:57:42;102860.94;;;18.32;44.91
60437;BME280;46289;51.992;4.498;2023-05-29T08:59:51;102865.22;;;18.14;45.06
60437;BME280;46289;51.992;4.498;2023-05-29T09:01:56;102865.53;;;18.29;44.38
60437;BME280;46289;51.992;4.498;2023-05-29T09:04:05;102862.19;;;18.24;43.03
60437;BME280;46289;51.992;4.498;2023-05-29T09:06:13;102864.50;;;17.64;43.49
60437;BME280;46289;51.992;4.498;2023-05-29T09:08:31;102862.97;;;17.82;43.58
60437;BME280;46289;51.992;4.498;2023-05-29T09:10:44;102858.53;;;18.26;43.38
60437;BME280;46289;51.992;4.498;2023-05-29T09:12:52;102873.03;;;18.41;43.37
60437;BME280;46289;51.992;4.498;2023-05-29T09:14:58;102864.81;;;18.25;42.28
60437;BME280;46289;51.992;4.498;2023-05-29T09:17:04;102863.56;;;18.12;42.92
60437;BME280;46289;51.992;4.498;2023-05-29T09:19:15;102861.38;;;18.43;42.61
60437;BME280;46289;51.992;4.498;2023-05-29T09:21:27;102873.66;;;18.26;42.59
60437;BME280;46289;51.992;4.498;2023-05-29T09:23:45;102861.66;;;18.58;42.60
60437;BME280;46289;51.992;4.498;2023-05-29T09:25:53;102866.63;;;18.67;42.38
60437;BME280;46289;51.992;4.498;2023-05-29T09:28:04;102851.31;;;18.50;41.81
60437;BME280;46289;51.992;4.498;2023-05-29T09:30:30;102864.84;;;18.66;41.32
60437;BME280;46289;51.992;4.498;2023-05-29T09:32:38;102862.88;;;18.71;41.62
60437;BME280;46289;51.992;4.498;2023-05-29T09:34:53;102859.19;;;18.96;42.40
60437;BME280;46289;51.992;4.498;2023-05-29T09:37:10;102864.50;;;18.53;42.21
60437;BME280;46289;51.992;4.498;2023-05-29T09:39:24;102864.53;;;18.74;41.55
60437;BME280;46289;51.992;4.498;2023-05-29T09:41:29;102859.16;;;18.33;41.41
60437;BME280;46289;51.992;4.498;2023-05-29T09:43:35;102863.22;;;17.97;41.96
60437;BME280;46289;51.992;4.498;2023-05-29T09:45:47;102853.25;;;18.47;41.64
60437;BME280;46289;51.992;4.498;2023-05-29T09:47:58;102846.88;;;18.51;42.38
60437;BME280;46289;51.992;4.498;2023-05-29T09:50:07;102855.97;;;18.88;42.32
60437;BME280;46289;51.992;4.498;2023-05-29T09:52:22;102851.81;;;18.60;42.67
60437;BME280;46289;51.992;4.498;2023-05-29T09:54:30;102853.78;;;18.97;42.29
60437;BME280;46289;51.992;4.498;2023-05-29T09:56:40;102845.97;;;18.72;42.25
60437;BME280;46289;51.992;4.498;2023-05-29T09:58:48;102849.13;;;19.02;41.64
60437;BME280;46289;51.992;4.498;2023-05-29T10:00:57;102840.41;;;18.99;42.35
60437;BME280;46289;51.992;4.498;2023-05-29T10:03:06;102847.25;;;19.25;41.67
60437;BME280;46289;51.992;4.498;2023-05-29T10:05:15;102840.47;;;19.37;40.27
60437;BME280;46289;51.992;4.498;2023-05-29T10:07:31;102850.25;;;19.76;40.39
60437;BME280;46289;51.992;4.498;2023-05-29T10:09:44;102846.41;;;19.62;40.52
60437;BME280;46289;51.992;4.498;2023-05-29T10:12:03;102835.81;;;19.42;40.09
60437;BME280;46289;51.992;4.498;2023-05-29T10:14:27;102846.25;;;20.03;39.67
60437;BME280;46289;51.992;4.498;2023-05-29T10:16:48;102836.38;;;20.05;38.53
60437;BME280;46289;51.992;4.498;2023-05-29T10:18:59;102843.66;;;20.21;38.42
60437;BME280;46289;51.992;4.498;2023-05-29T10:21:11;102839.59;;;19.76;38.51
60437;BME280;46289;51.992;4.498;2023-05-29T10:23:35;102847.00;;;19.88;38.88
60437;BME280;46289;51.992;4.498;2023-05-29T10:25:51;102851.53;;;20.05;38.46
60437;BME280;46289;51.992;4.498;2023-05-29T10:27:58;102849.53;;;19.91;38.34
60437;BME280;46289;51.992;4.498;2023-05-29T10:30:25;102840.19;;;20.18;38.32
60437;BME280;46289;51.992;4.498;2023-05-29T10:33:00;102842.00;;;20.18;38.92
60437;BME280;46289;51.992;4.498;2023-05-29T10:35:22;102837.28;;;20.23;39.10
60437;BME280;46289;51.992;4.498;2023-05-29T10:37:38;102832.63;;;20.09;38.42
60437;BME280;46289;51.992;4.498;2023-05-29T10:39:45;102834.34;;;20.64;38.91
60437;BME280;46289;51.992;4.498;2023-05-29T10:41:56;102835.31;;;20.09;38.49
60437;BME280;46289;51.992;4.498;2023-05-29T10:47:04;102835.97;;;19.77;39.34
60437;BME280;46289;51.992;4.498;2023-05-29T10:49:15;102825.75;;;20.40;39.28
60437;BME280;46289;51.992;4.498;2023-05-29T10:51:28;102823.44;;;20.69;38.46
60437;BME280;46289;51.992;4.498;2023-05-29T10:53:38;102826.47;;;20.44;39.03
60437;BME280;46289;51.992;4.498;2023-05-29T10:55:47;102824.84;;;20.76;38.07
60437;BME280;46289;51.992;4.498;2023-05-29T10:58:06;102815.34;;;20.70;37.29
60437;BME280;46289;51.992;4.498;2023-05-29T11:00:16;102822.56;;;20.68;37.60
60437;BME280;46289;51.992;4.498;2023-05-29T11:02:41;102831.41;;;20.34;37.78
60437;BME280;46289;51.992;4.498;2023-05-29T11:05:04;102814.91;;;20.43;38.61
60437;BME280;46289;51.992;4.498;2023-05-29T11:07:42;102826.28;;;20.12;37.69
60437;BME280;46289;51.992;4.498;2023-05-29T11:10:11;102830.59;;;20.14;37.74
60437;BME280;46289;51.992;4.498;2023-05-29T11:12:23;102825.97;;;20.18;37.53
60437;BME280;46289;51.992;4.498;2023-05-29T11:14:47;102826.66;;;20.58;37.21
60437;BME280;46289;51.992;4.498;2023-05-29T11:19:24;102819.78;;;20.17;35.28
60437;BME280;46289;51.992;4.498;2023-05-29T11:21:53;102818.38;;;20.28;36.10
60437;BME280;46289;51.992;4.498;2023-05-29T11:24:07;102817.09;;;20.54;36.55
60437;BME280;46289;51.992;4.498;2023-05-29T11:26:23;102818.50;;;20.25;36.92
60437;BME280;46289;51.992;4.498;2023-05-29T11:28:28;102817.91;;;20.37;36.84
60437;BME280;46289;51.992;4.498;2023-05-29T11:30:47;102828.69;;;19.99;36.59